createdAt,value
2023-01-22T00:01:15.351Z,79
2023-01-22T00:03:13.061Z,79.6
2023-01-22T00:05:12.871Z,79.6
2023-01-22T00:07:12.584Z,79.6
2023-01-22T00:09:12.544Z,79.6
2023-01-22T00:11:12.283Z,79.4
2023-01-22T00:13:12.230Z,79.4
2023-01-22T00:15:11.955Z,79.4
2023-01-22T00:17:11.787Z,79
2023-01-22T00:19:11.558Z,79
2023-01-22T00:21:12.055Z,79.6
2023-01-22T00:23:11.234Z,80.4
2023-01-22T00:25:11.855Z,79.9
2023-01-22T00:27:10.899Z,79.1
2023-01-22T00:29:10.882Z,79.9
2023-01-22T00:31:11.544Z,78.8
2023-01-22T00:33:10.678Z,78.8
2023-01-22T00:35:10.140Z,78.8
2023-01-22T00:37:09.931Z,79.6
2023-01-22T00:39:10.092Z,79.6
2023-01-22T00:41:10.242Z,79.4
2023-01-22T00:43:09.516Z,80.1
2023-01-22T00:45:12.541Z,79.5
2023-01-22T00:47:10.493Z,78.7
2023-01-22T00:49:08.792Z,79.9
2023-01-22T00:51:09.172Z,79.4
2023-01-22T00:53:08.444Z,79.4
2023-01-22T00:55:08.862Z,80.6
2023-01-22T00:57:08.217Z,79.7
2023-01-22T00:59:08.473Z,80.3
2023-01-22T01:01:08.205Z,79.3
2023-01-22T01:03:07.540Z,79.3
2023-01-22T01:05:07.707Z,80.3
2023-01-22T01:07:07.700Z,80.3
2023-01-22T01:09:09.029Z,80.3
2023-01-22T01:11:10.521Z,80.6
2023-01-22T01:13:06.451Z,80.6
2023-01-22T01:15:07.591Z,81
2023-01-22T01:17:06.123Z,81
2023-01-22T01:19:08.123Z,80.3
2023-01-22T01:21:05.722Z,81.2
2023-01-22T01:23:05.900Z,81.1
2023-01-22T01:25:05.578Z,81.1
2023-01-22T01:27:04.966Z,82
2023-01-22T01:29:05.628Z,81.2
2023-01-22T01:31:07.237Z,81.2
2023-01-22T01:33:04.371Z,81.2
2023-01-22T01:35:05.299Z,81.2
2023-01-22T01:37:03.952Z,81.2
2023-01-22T01:39:03.779Z,81.7
2023-01-22T01:41:04.085Z,81.2
2023-01-22T01:43:03.209Z,81.2
2023-01-22T01:45:19.978Z,81.5
2023-01-22T01:47:07.143Z,81.5
2023-01-22T01:49:04.722Z,81
2023-01-22T01:51:07.698Z,81.2
2023-01-22T01:53:03.254Z,81.2
2023-01-22T01:55:03.448Z,81.2
2023-01-22T01:57:07.851Z,81.2
2023-01-22T01:59:08.192Z,81.2
2023-01-22T02:01:07.879Z,81.4
2023-01-22T02:03:02.313Z,81.4
2023-01-22T02:05:01.803Z,81
2023-01-22T02:07:03.080Z,81
2023-01-22T02:09:02.126Z,81.5
2023-01-22T02:11:00.504Z,81.5
2023-01-22T02:13:05.149Z,81.5
2023-01-22T02:15:03.256Z,81.5
2023-01-22T02:17:00.915Z,82.2
2023-01-22T02:18:59.694Z,81.6
2023-01-22T02:21:00.549Z,82.1
2023-01-22T02:22:59.313Z,82.1
2023-01-22T02:24:59.878Z,82.1
2023-01-22T02:26:58.794Z,82.1
2023-01-22T02:29:01.064Z,82.1
2023-01-22T02:30:58.871Z,82.6
2023-01-22T02:32:58.516Z,82.3
2023-01-22T02:34:59.967Z,82.3
2023-01-22T02:36:57.664Z,82.3
2023-01-22T02:38:57.716Z,82.3
2023-01-22T02:40:57.418Z,82.5
2023-01-22T02:42:57.187Z,82.5
2023-01-22T02:44:57.128Z,82.5
2023-01-22T02:46:57.083Z,83.1
2023-01-22T02:48:56.547Z,82.8
2023-01-22T02:50:57.678Z,82.8
2023-01-22T02:52:56.091Z,82.8
2023-01-22T02:54:55.987Z,82.8
2023-01-22T02:56:57.046Z,82.8
2023-01-22T02:58:55.733Z,82.8
2023-01-22T03:00:55.274Z,82.8
2023-01-22T03:02:54.950Z,83.1
2023-01-22T03:04:54.641Z,83.3
2023-01-22T03:06:56.549Z,83.3
2023-01-22T03:08:56.260Z,83.3
2023-01-22T03:10:58.145Z,83.4
2023-01-22T03:12:53.913Z,83.4
2023-01-22T03:14:53.530Z,83.4
2023-01-22T03:16:54.386Z,83.9
2023-01-22T03:18:53.106Z,83.9
2023-01-22T03:20:53.323Z,83.9
2023-01-22T03:22:53.323Z,83.7
2023-01-22T03:24:54.794Z,83.7
2023-01-22T03:26:52.537Z,83.2
2023-01-22T03:28:52.037Z,83.2
2023-01-22T03:30:51.896Z,83.9
2023-01-22T03:32:52.367Z,83.4
2023-01-22T03:34:51.534Z,83.4
2023-01-22T03:36:51.217Z,84.1
2023-01-22T03:38:53.660Z,83.5
2023-01-22T03:40:50.971Z,84
2023-01-22T03:42:50.804Z,83.8
2023-01-22T03:44:50.798Z,83.8
2023-01-22T03:46:50.368Z,83.8
2023-01-22T03:48:50.969Z,83.8
2023-01-22T03:50:49.688Z,83.8
2023-01-22T03:52:49.435Z,84.5
2023-01-22T03:54:49.211Z,84.5
2023-01-22T03:56:54.464Z,83.9
2023-01-22T03:58:50.035Z,84.4
2023-01-22T04:00:48.832Z,84.4
2023-01-22T04:02:52.459Z,84.8
2023-01-22T04:04:48.391Z,84.8
2023-01-22T04:06:48.008Z,84.8
2023-01-22T04:08:50.635Z,84.8
2023-01-22T04:10:47.586Z,84.8
2023-01-22T04:12:49.091Z,84.6
2023-01-22T04:14:47.063Z,84.6
2023-01-22T04:17:01.599Z,85.4
2023-01-22T04:18:55.315Z,84.6
2023-01-22T04:20:55.635Z,84.6
2023-01-22T04:22:47.161Z,84.6
2023-01-22T04:24:45.918Z,84.6
2023-01-22T04:26:47.047Z,84.6
2023-01-22T04:28:46.957Z,85.3
2023-01-22T04:31:02.359Z,85.3
2023-01-22T04:33:00.035Z,85.3
2023-01-22T04:34:53.429Z,85.3
2023-01-22T04:36:44.754Z,85.3
2023-01-22T04:38:44.568Z,85.3
2023-01-22T04:40:44.826Z,86
2023-01-22T04:42:44.088Z,85.2
2023-01-22T04:44:44.212Z,85.2
2023-01-22T04:46:46.504Z,85.2
2023-01-22T04:48:43.900Z,85.8
2023-01-22T04:50:46.461Z,85.8
2023-01-22T04:52:43.917Z,85.6
2023-01-22T04:54:43.356Z,85.6
2023-01-22T04:56:42.673Z,85.6
2023-01-22T04:58:42.660Z,85.6
2023-01-22T05:00:42.591Z,85.6
2023-01-22T05:02:41.999Z,86.1
2023-01-22T05:04:41.758Z,86.4
2023-01-22T05:06:41.796Z,86.4
2023-01-22T05:08:42.956Z,86.4
2023-01-22T05:10:43.563Z,87
2023-01-22T05:12:40.775Z,86.9
2023-01-22T05:14:40.893Z,86.9
2023-01-22T05:16:40.517Z,86.9
2023-01-22T05:18:40.392Z,86.9
2023-01-22T05:20:41.276Z,86.9
2023-01-22T05:22:40.031Z,87.6
2023-01-22T05:24:39.491Z,87.6
2023-01-22T05:26:45.509Z,87.6
2023-01-22T05:28:44.013Z,87.6
2023-01-22T05:30:49.559Z,88.2
2023-01-22T05:32:38.670Z,88.2
2023-01-22T05:34:38.471Z,87.7
2023-01-22T05:36:43.168Z,88.2
2023-01-22T05:38:37.873Z,88.2
2023-01-22T05:40:37.399Z,88.2
2023-01-22T05:42:38.961Z,88
2023-01-22T05:44:37.244Z,88
2023-01-22T05:46:51.771Z,88
2023-01-22T05:48:44.838Z,88
2023-01-22T05:50:42.115Z,88
2023-01-22T05:52:36.039Z,88.4
2023-01-22T05:54:36.424Z,88.4
2023-01-22T05:56:35.788Z,88.4
2023-01-22T05:58:35.580Z,88.4
2023-01-22T06:00:36.248Z,88.4
2023-01-22T06:02:35.275Z,88.6
2023-01-22T06:04:35.175Z,88.6
2023-01-22T06:06:35.203Z,88.6
2023-01-22T06:08:34.427Z,88.6
2023-01-22T06:10:34.530Z,88.9
2023-01-22T06:12:33.582Z,88.9
2023-01-22T06:14:33.910Z,88.9
2023-01-22T06:16:44.672Z,88.9
2023-01-22T06:18:35.176Z,88.9
2023-01-22T06:20:33.795Z,88.9
2023-01-22T06:22:34.301Z,89
2023-01-22T06:24:32.665Z,89
2023-01-22T06:26:32.654Z,89
2023-01-22T06:28:31.933Z,89
2023-01-22T06:30:33.657Z,89
2023-01-22T06:32:32.516Z,88.9
2023-01-22T06:34:32.025Z,88.9
2023-01-22T06:36:31.883Z,88.9
2023-01-22T06:38:31.862Z,88.9
2023-01-22T06:40:30.362Z,88.9
2023-01-22T06:42:30.384Z,88.6
2023-01-22T06:44:29.903Z,88.6
2023-01-22T06:46:39.786Z,88.6
2023-01-22T06:48:29.359Z,88.6
2023-01-22T06:50:29.810Z,88.6
2023-01-22T06:52:29.004Z,88.9
2023-01-22T06:54:28.723Z,88.9
2023-01-22T06:56:29.439Z,88.9
2023-01-22T06:58:28.633Z,88.9
2023-01-22T07:00:28.295Z,88.9
2023-01-22T07:02:27.761Z,89
2023-01-22T07:04:27.896Z,89
2023-01-22T07:06:27.304Z,89
2023-01-22T07:08:28.591Z,89
2023-01-22T07:10:27.427Z,88.2
2023-01-22T07:12:26.613Z,88.1
2023-01-22T07:14:36.563Z,88.1
2023-01-22T07:16:26.218Z,88.1
2023-01-22T07:18:25.963Z,88.1
2023-01-22T07:20:25.708Z,88.1
2023-01-22T07:22:25.491Z,88.3
2023-01-22T07:24:25.368Z,88.3
2023-01-22T07:26:25.102Z,88.3
2023-01-22T07:28:24.992Z,88.3
2023-01-22T07:30:24.664Z,88.3
2023-01-22T07:32:24.368Z,88.7
2023-01-22T07:34:24.104Z,88.7
2023-01-22T07:36:23.919Z,88.7
2023-01-22T07:38:26.030Z,88.7
2023-01-22T07:40:24.611Z,88.7
2023-01-22T07:42:23.292Z,87.8
2023-01-22T07:44:22.960Z,87.8
2023-01-22T07:46:22.936Z,87.8
2023-01-22T07:48:22.589Z,87.8
2023-01-22T07:50:23.532Z,87.6
2023-01-22T07:52:22.104Z,87.9
2023-01-22T07:54:22.115Z,87.9
2023-01-22T07:56:21.801Z,87.9
2023-01-22T07:58:21.554Z,87
2023-01-22T08:00:21.605Z,87
2023-01-22T08:02:21.136Z,87.3
2023-01-22T08:04:20.934Z,87.3
2023-01-22T08:06:20.806Z,87.3
2023-01-22T08:08:20.384Z,87.3
2023-01-22T08:10:20.650Z,86.4
2023-01-22T08:12:19.874Z,86.2
2023-01-22T08:14:19.865Z,86.2
2023-01-22T08:16:19.592Z,86.2
2023-01-22T08:18:22.137Z,85.9
2023-01-22T08:20:19.601Z,86.8
2023-01-22T08:22:18.866Z,86.9
2023-01-22T08:24:18.757Z,86.9
2023-01-22T08:26:19.356Z,86.9
2023-01-22T08:28:18.386Z,86.9
2023-01-22T08:30:19.071Z,86.9
2023-01-22T08:32:18.467Z,86.5
2023-01-22T08:34:17.857Z,86.5
2023-01-22T08:36:17.552Z,86.5
2023-01-22T08:38:17.411Z,86.5
2023-01-22T08:40:17.537Z,87.4
2023-01-22T08:42:17.093Z,87.9
2023-01-22T08:44:16.661Z,87.9
2023-01-22T08:46:16.453Z,87.9
2023-01-22T08:48:16.422Z,87.4
2023-01-22T08:50:17.358Z,86.8
2023-01-22T08:52:16.189Z,87.1
2023-01-22T08:54:16.130Z,87.1
2023-01-22T08:56:15.439Z,87.1
2023-01-22T08:58:15.215Z,87.1
2023-01-22T09:00:16.590Z,87.1
2023-01-22T09:02:15.009Z,86.8
2023-01-22T09:04:14.527Z,87.4
2023-01-22T09:06:15.134Z,87.4
2023-01-22T09:08:14.355Z,86.7
2023-01-22T09:10:14.034Z,86.7
2023-01-22T09:12:13.747Z,86.5
2023-01-22T09:14:14.058Z,86.5
2023-01-22T09:16:13.383Z,86.5
2023-01-22T09:18:13.289Z,86.5
2023-01-22T09:20:12.946Z,86.5
2023-01-22T09:22:12.750Z,86.4
2023-01-22T09:24:12.533Z,86.2
2023-01-22T09:26:12.377Z,86.2
2023-01-22T09:28:12.165Z,86.2
2023-01-22T09:30:12.427Z,86.2
2023-01-22T09:32:11.800Z,86
2023-01-22T09:34:11.607Z,86
2023-01-22T09:36:14.212Z,86
2023-01-22T09:38:12.853Z,86
2023-01-22T09:40:24.277Z,86
2023-01-22T09:42:18.869Z,85.4
2023-01-22T09:44:16.821Z,85.4
2023-01-22T09:46:17.010Z,85.4
2023-01-22T09:48:16.142Z,85.4
2023-01-22T09:50:18.234Z,85.4
2023-01-22T09:52:11.030Z,85.3
2023-01-22T09:54:12.281Z,84.9
2023-01-22T09:56:19.502Z,84.9
2023-01-22T09:58:14.174Z,84.9
2023-01-22T10:00:15.949Z,84.9
2023-01-22T10:02:22.438Z,84.8
2023-01-22T10:04:24.471Z,84.8
2023-01-22T10:06:12.445Z,84.8
2023-01-22T10:08:12.973Z,84.8
2023-01-22T10:10:19.065Z,84.8
2023-01-22T10:12:12.717Z,84.5
2023-01-22T10:14:14.620Z,84.1
2023-01-22T10:16:09.363Z,84.1
2023-01-22T10:18:21.508Z,84.6
2023-01-22T10:20:13.034Z,84.1
2023-01-22T10:22:16.448Z,84.3
2023-01-22T10:24:09.034Z,84.3
2023-01-22T10:26:15.761Z,84.6
2023-01-22T10:28:07.106Z,84.6
2023-01-22T10:30:18.070Z,84.6
2023-01-22T10:32:19.296Z,84.5
2023-01-22T10:34:13.081Z,84.5
2023-01-22T10:36:06.872Z,85.2
2023-01-22T10:38:06.060Z,84.7
2023-01-22T10:40:19.748Z,84.7
2023-01-22T10:42:05.918Z,84.4
2023-01-22T10:44:18.626Z,84.1
2023-01-22T10:46:15.440Z,84.1
2023-01-22T10:48:12.309Z,84.8
2023-01-22T10:50:13.170Z,85.4
2023-01-22T10:52:17.943Z,84.2
2023-01-22T10:54:19.033Z,84.2
2023-01-22T10:56:12.417Z,84.2
2023-01-22T10:58:17.608Z,84.2
2023-01-22T11:00:20.379Z,84.2
2023-01-22T11:02:14.533Z,85.3
2023-01-22T11:04:11.996Z,84.3
2023-01-22T11:06:15.257Z,84.9
2023-01-22T11:08:06.247Z,84.2
2023-01-22T11:10:11.181Z,84.7
2023-01-22T11:12:11.476Z,84.2
2023-01-22T11:14:09.663Z,84.2
2023-01-22T11:16:07.390Z,84.8
2023-01-22T11:18:05.413Z,84.2
2023-01-22T11:20:10.707Z,85
2023-01-22T11:22:05.666Z,84.1
2023-01-22T11:24:09.151Z,84.1
2023-01-22T11:26:16.265Z,85.3
2023-01-22T11:28:12.784Z,85.3
2023-01-22T11:30:20.427Z,83.8
2023-01-22T11:32:22.761Z,84.4
2023-01-22T11:34:16.402Z,84.4
2023-01-22T11:36:09.590Z,84.4
2023-01-22T11:38:15.528Z,84.3
2023-01-22T11:40:14.656Z,84.3
2023-01-22T11:42:09.224Z,84.2
2023-01-22T11:44:17.944Z,84.2
2023-01-22T11:46:24.369Z,84.2
2023-01-22T11:48:18.912Z,84.8
2023-01-22T11:50:14.147Z,84.8
2023-01-22T11:52:14.655Z,85.5
2023-01-22T11:54:22.118Z,85.5
2023-01-22T11:56:15.576Z,85.5
2023-01-22T11:58:07.361Z,84.8
2023-01-22T12:00:22.284Z,84.8
2023-01-22T12:02:16.665Z,85.6
2023-01-22T12:04:20.838Z,85.6
2023-01-22T12:06:11.046Z,86
2023-01-22T12:08:11.459Z,85.3
2023-01-22T12:10:18.424Z,85.3
2023-01-22T12:12:09.139Z,85.4
2023-01-22T12:14:13.961Z,85.4
2023-01-22T12:16:10.233Z,85.4
2023-01-22T12:18:13.724Z,85.4
2023-01-22T12:20:12.346Z,85.5
2023-01-22T12:22:03.749Z,85.9
2023-01-22T12:24:04.029Z,86
2023-01-22T12:26:02.305Z,86
2023-01-22T12:28:01.849Z,86
2023-01-22T12:30:01.638Z,86
2023-01-22T12:32:04.475Z,86.1
2023-01-22T12:33:59.215Z,86.1
2023-01-22T12:36:00.427Z,86.5
2023-01-22T12:38:05.403Z,86.5
2023-01-22T12:40:26.732Z,86.5
2023-01-22T12:42:08.188Z,86.7
2023-01-22T12:43:57.326Z,86.7
2023-01-22T12:46:03.796Z,86.7
2023-01-22T12:48:04.601Z,86.7
2023-01-22T12:49:55.054Z,86.7
2023-01-22T12:51:55.962Z,87.4
2023-01-22T12:53:54.293Z,86.7
2023-01-22T12:55:59.969Z,86.7
2023-01-22T12:57:53.903Z,87.3
2023-01-22T12:59:55.844Z,87.3
2023-01-22T13:01:59.030Z,87.2
2023-01-22T13:03:59.570Z,87.2
2023-01-22T13:05:53.171Z,87.9
2023-01-22T13:08:02.843Z,87.9
2023-01-22T13:10:01.444Z,87.9
2023-01-22T13:11:52.622Z,87.9
2023-01-22T13:14:09.760Z,88.6
2023-01-22T13:15:54.376Z,88.6
2023-01-22T13:18:06.687Z,88
2023-01-22T13:19:53.683Z,88
2023-01-22T13:21:52.619Z,88.1
2023-01-22T13:23:56.346Z,88.1
2023-01-22T13:25:53.537Z,88.1
2023-01-22T13:27:51.335Z,88.1
2023-01-22T13:29:51.334Z,88.1
2023-01-22T13:31:52.829Z,88.1
2023-01-22T13:33:56.104Z,88.1
2023-01-22T13:35:50.581Z,88.1
2023-01-22T13:37:51.116Z,88.1
2023-01-22T13:39:50.587Z,88.1
2023-01-22T13:41:51.950Z,88.6
2023-01-22T13:43:50.340Z,88.6
2023-01-22T13:45:51.519Z,88.6
2023-01-22T13:47:53.261Z,88.6
2023-01-22T13:49:49.360Z,88.6
2023-01-22T13:51:50.020Z,89
2023-01-22T13:53:54.691Z,89
2023-01-22T13:55:49.002Z,89
2023-01-22T13:57:50.413Z,89
2023-01-22T13:59:54.248Z,89
2023-01-22T14:01:48.898Z,89.3
2023-01-22T14:03:58.244Z,88.7
2023-01-22T14:05:50.203Z,89.3
2023-01-22T14:07:48.151Z,89.3
2023-01-22T14:09:47.541Z,89.3
2023-01-22T14:11:49.304Z,89.1
2023-01-22T14:13:48.870Z,89.1
2023-01-22T14:15:55.786Z,89.1
2023-01-22T14:17:48.495Z,89.1
2023-01-22T14:19:46.542Z,89.1
2023-01-22T14:21:46.397Z,88.9
2023-01-22T14:23:46.164Z,88.9
2023-01-22T14:25:48.924Z,88.9
2023-01-22T14:27:48.495Z,88.9
2023-01-22T14:29:45.538Z,88.9
2023-01-22T14:31:45.499Z,89.2
2023-01-22T14:33:45.228Z,89.2
2023-01-22T14:35:45.118Z,89.2
2023-01-22T14:37:45.345Z,89.8
2023-01-22T14:39:44.697Z,89.8
2023-01-22T14:41:44.752Z,89.9
2023-01-22T14:43:44.253Z,89.9
2023-01-22T14:45:45.498Z,89.9
2023-01-22T14:47:44.028Z,89.9
2023-01-22T14:49:44.028Z,89.9
2023-01-22T14:51:44.035Z,89.8
2023-01-22T14:53:43.670Z,89.8
2023-01-22T14:55:43.862Z,89.8
2023-01-22T14:57:43.179Z,89.8
2023-01-22T14:59:42.831Z,89.8
2023-01-22T15:01:42.611Z,89.8
2023-01-22T15:03:42.719Z,89.8
2023-01-22T15:05:42.311Z,89.8
2023-01-22T15:07:42.115Z,89.8
2023-01-22T15:09:41.891Z,89.8
2023-01-22T15:11:41.818Z,89.8
2023-01-22T15:13:41.610Z,89.8
2023-01-22T15:15:41.387Z,89.8
2023-01-22T15:17:41.308Z,89.2
2023-01-22T15:19:41.856Z,89.7
2023-01-22T15:21:40.836Z,89.8
2023-01-22T15:23:40.825Z,89.8
2023-01-22T15:25:40.562Z,89.8
2023-01-22T15:27:40.579Z,89.8
2023-01-22T15:29:40.236Z,89.8
2023-01-22T15:31:40.308Z,89.5
2023-01-22T15:33:39.782Z,89.5
2023-01-22T15:35:40.849Z,89.5
2023-01-22T15:37:39.525Z,89.5
2023-01-22T15:39:39.470Z,89.5
2023-01-22T15:41:39.259Z,89.4
2023-01-22T15:43:39.043Z,89.4
2023-01-22T15:45:38.961Z,89.4
2023-01-22T15:47:38.755Z,89.4
2023-01-22T15:49:38.429Z,89.4
2023-01-22T15:51:39.597Z,89.8
2023-01-22T15:53:38.141Z,89.8
2023-01-22T15:55:38.035Z,89.8
2023-01-22T15:57:37.916Z,89.8
2023-01-22T15:59:37.753Z,89.8
2023-01-22T16:01:38.072Z,90
2023-01-22T16:03:37.462Z,90.3
2023-01-22T16:05:37.145Z,90.3
2023-01-22T16:07:36.998Z,90.3
2023-01-22T16:09:36.850Z,90.3
2023-01-22T16:11:36.869Z,90.3
2023-01-22T16:13:37.339Z,90.3
2023-01-22T16:15:36.165Z,90.3
2023-01-22T16:17:36.059Z,90.3
2023-01-22T16:19:35.925Z,90.3
2023-01-22T16:21:36.284Z,90.3
2023-01-22T16:23:38.645Z,90.3
2023-01-22T16:25:38.477Z,90.3
2023-01-22T16:27:35.084Z,90.3
2023-01-22T16:29:34.974Z,90.3
2023-01-22T16:31:35.982Z,89.8
2023-01-22T16:33:37.591Z,89.8
2023-01-22T16:35:34.468Z,89.8
2023-01-22T16:37:34.345Z,89.8
2023-01-22T16:39:33.990Z,89.2
2023-01-22T16:41:35.479Z,89.4
2023-01-22T16:43:33.645Z,89.4
2023-01-22T16:45:34.418Z,89.4
2023-01-22T16:47:33.295Z,89.4
2023-01-22T16:49:33.488Z,89.9
2023-01-22T16:51:35.114Z,89.9
2023-01-22T16:53:33.543Z,89.9
2023-01-22T16:55:32.556Z,89.4
2023-01-22T16:57:32.400Z,89.4
2023-01-22T16:59:33.782Z,89.4
2023-01-22T17:01:32.146Z,89.7
2023-01-22T17:03:31.886Z,89.7
2023-01-22T17:05:31.614Z,89.7
2023-01-22T17:07:34.278Z,89.7
2023-01-22T17:09:33.675Z,90
2023-01-22T17:11:31.129Z,89.6
2023-01-22T17:13:31.169Z,89.3
2023-01-22T17:15:30.743Z,89.3
2023-01-22T17:17:30.509Z,89.3
2023-01-22T17:19:30.336Z,90
2023-01-22T17:21:30.473Z,89.4
2023-01-22T17:23:29.773Z,89.4
2023-01-22T17:25:29.673Z,89.4
2023-01-22T17:27:30.647Z,89.4
2023-01-22T17:29:31.005Z,89.4
2023-01-22T17:31:29.262Z,89.7
2023-01-22T17:33:28.989Z,89.7
2023-01-22T17:35:28.818Z,89.7
2023-01-22T17:37:28.493Z,89.7
2023-01-22T17:39:28.515Z,89.7
2023-01-22T17:41:28.375Z,89.6
2023-01-22T17:43:28.216Z,90.1
2023-01-22T17:45:27.700Z,89.6
2023-01-22T17:47:27.654Z,89.6
2023-01-22T17:49:27.309Z,89.6
2023-01-22T17:51:28.758Z,89.6
2023-01-22T17:53:27.003Z,89.6
2023-01-22T17:55:28.561Z,89.6
2023-01-22T17:57:26.627Z,89.6
2023-01-22T17:59:26.644Z,90.1
2023-01-22T18:01:27.674Z,90.2
2023-01-22T18:03:26.079Z,90.2
2023-01-22T18:05:25.938Z,90.2
2023-01-22T18:07:25.723Z,89.5
2023-01-22T18:09:25.733Z,89.5
2023-01-22T18:11:28.352Z,89.8
2023-01-22T18:13:25.507Z,89.8
2023-01-22T18:15:24.933Z,89.8
2023-01-22T18:17:24.832Z,89.8
2023-01-22T18:19:24.856Z,89.8
2023-01-22T18:21:24.724Z,90.2
2023-01-22T18:23:24.275Z,90.2
2023-01-22T18:25:24.045Z,90.2
2023-01-22T18:27:23.977Z,90.2
2023-01-22T18:29:23.656Z,90.2
2023-01-22T18:31:25.715Z,89.7
2023-01-22T18:33:23.242Z,89.5
2023-01-22T18:35:23.065Z,89.5
2023-01-22T18:37:22.932Z,89.5
2023-01-22T18:39:22.751Z,89.5
2023-01-22T18:41:24.828Z,89.9
2023-01-22T18:43:22.389Z,90.1
2023-01-22T18:45:22.213Z,90.1
2023-01-22T18:47:21.962Z,90.1
2023-01-22T18:49:22.435Z,90.1
2023-01-22T18:51:23.032Z,90.1
2023-01-22T18:53:21.440Z,91
2023-01-22T18:55:21.855Z,90.1
2023-01-22T18:57:50.743Z,90.1
2023-01-22T18:59:20.973Z,90.1
2023-01-22T19:01:23.245Z,89.8
2023-01-22T19:03:21.196Z,89.8
2023-01-22T19:05:21.013Z,89.8
2023-01-22T19:07:20.127Z,89.8
2023-01-22T19:09:20.364Z,89.8
2023-01-22T19:11:20.357Z,90.1
2023-01-22T19:13:20.921Z,90.1
2023-01-22T19:15:19.949Z,90.1
2023-01-22T19:17:19.235Z,90.1
2023-01-22T19:19:19.787Z,90.1
2023-01-22T19:21:21.406Z,90.4
2023-01-22T19:23:18.675Z,90.7
2023-01-22T19:25:18.887Z,90.7
2023-01-22T19:27:18.328Z,90.7
2023-01-22T19:29:18.373Z,90.7
2023-01-22T19:31:20.515Z,90.8
2023-01-22T19:33:17.965Z,90.8
2023-01-22T19:35:18.184Z,90.8
2023-01-22T19:37:17.336Z,90.8
2023-01-22T19:39:17.591Z,90.8
2023-01-22T19:41:17.201Z,90.6
2023-01-22T19:43:16.633Z,90.6
2023-01-22T19:45:16.963Z,90.6
2023-01-22T19:47:17.536Z,90.6
2023-01-22T19:49:16.229Z,90.6
2023-01-22T19:51:18.577Z,90.9
2023-01-22T19:53:15.814Z,90.9
2023-01-22T19:55:15.833Z,90.9
2023-01-22T19:57:15.642Z,90.9
2023-01-22T19:59:17.969Z,90.9
2023-01-22T20:01:16.710Z,90.7
2023-01-22T20:03:15.290Z,90.7
2023-01-22T20:05:15.064Z,90.7
2023-01-22T20:07:14.508Z,90.7
2023-01-22T20:09:14.292Z,90.7
2023-01-22T20:11:15.474Z,90.7
2023-01-22T20:13:14.471Z,90.7
2023-01-22T20:15:15.572Z,90.7
2023-01-22T20:17:13.640Z,90.7
2023-01-22T20:19:13.492Z,90.7
2023-01-22T20:21:13.702Z,90.7
2023-01-22T20:23:13.038Z,90.7
2023-01-22T20:25:13.172Z,90.7
2023-01-22T20:27:13.031Z,90.7
2023-01-22T20:29:12.829Z,90.7
2023-01-22T20:31:15.041Z,90.5
2023-01-22T20:33:12.207Z,90.5
2023-01-22T20:35:11.847Z,90.5
2023-01-22T20:37:11.702Z,90.5
2023-01-22T20:39:12.185Z,90.5
2023-01-22T20:41:12.177Z,91.2
2023-01-22T20:43:11.476Z,90.9
2023-01-22T20:45:11.030Z,90.9
2023-01-22T20:47:11.327Z,90.9
2023-01-22T20:49:11.225Z,90.9
2023-01-22T20:51:15.181Z,90.4
2023-01-22T20:53:10.204Z,90.4
2023-01-22T20:55:10.686Z,90.4
2023-01-22T20:57:09.934Z,90.9
2023-01-22T20:59:13.059Z,90.9
2023-01-22T21:01:12.419Z,90.7
2023-01-22T21:03:09.325Z,90.7
2023-01-22T21:05:09.465Z,90.4
2023-01-22T21:07:08.968Z,90.4
2023-01-22T21:09:10.058Z,90.9
2023-01-22T21:11:12.354Z,90.6
2023-01-22T21:13:08.681Z,90.6
2023-01-22T21:15:09.244Z,90.6
2023-01-22T21:17:08.367Z,90.6
2023-01-22T21:19:14.063Z,90.2
2023-01-22T21:21:08.563Z,90.7
2023-01-22T21:23:07.706Z,90.7
2023-01-22T21:25:08.096Z,90.8
2023-01-22T21:27:07.404Z,90.2
2023-01-22T21:29:10.559Z,90.2
2023-01-22T21:31:08.341Z,90.7
2023-01-22T21:33:06.814Z,90.2
2023-01-22T21:35:07.237Z,90.2
2023-01-22T21:37:06.403Z,90.7
2023-01-22T21:39:09.540Z,90.7
2023-01-22T21:41:08.120Z,90.7
2023-01-22T21:43:05.867Z,90.7
2023-01-22T21:45:08.323Z,90.7
2023-01-22T21:47:05.977Z,90.7
2023-01-22T21:49:07.704Z,90.7
2023-01-22T21:51:05.517Z,90.2
2023-01-22T21:53:05.028Z,90.2
2023-01-22T21:55:06.404Z,90.2
2023-01-22T21:57:06.286Z,90.2
2023-01-22T21:59:04.494Z,90.2
2023-01-22T22:01:05.539Z,90.5
2023-01-22T22:03:04.305Z,90.9
2023-01-22T22:05:04.490Z,90.9
2023-01-22T22:07:03.801Z,90.9
2023-01-22T22:09:05.916Z,90.2
2023-01-22T22:11:03.935Z,90.3
2023-01-22T22:13:03.505Z,90.3
2023-01-22T22:15:03.629Z,90.3
2023-01-22T22:17:03.115Z,90.3
2023-01-22T22:19:02.977Z,90.3
2023-01-22T22:21:05.168Z,90.5
2023-01-22T22:23:02.914Z,90.5
2023-01-22T22:25:02.437Z,89.8
2023-01-22T22:27:02.112Z,89.8
2023-01-22T22:29:02.666Z,90.4
2023-01-22T22:31:03.374Z,90.3
2023-01-22T22:33:01.780Z,90.3
2023-01-22T22:35:01.539Z,90.3
2023-01-22T22:37:01.478Z,89.8
2023-01-22T22:39:01.755Z,89.8
2023-01-22T22:41:03.212Z,90.4
2023-01-22T22:43:00.827Z,90.4
2023-01-22T22:45:00.767Z,90.4
2023-01-22T22:47:00.444Z,90.4
2023-01-22T22:49:01.634Z,90
2023-01-22T22:51:00.389Z,90.1
2023-01-22T22:53:00.119Z,90.7
2023-01-22T22:55:00.084Z,90.7
2023-01-22T22:56:59.911Z,90.1
2023-01-22T22:59:00.483Z,90.1
2023-01-22T23:01:04.422Z,89.9
2023-01-22T23:02:59.238Z,90.2
2023-01-22T23:04:59.160Z,90.2
2023-01-22T23:06:59.065Z,89.7
2023-01-22T23:09:00.454Z,89.7
2023-01-22T23:11:00.784Z,90.1
2023-01-22T23:13:00.963Z,90.2
2023-01-22T23:14:58.341Z,90.2
2023-01-22T23:16:58.189Z,89.7
2023-01-22T23:18:59.622Z,89.7
2023-01-22T23:21:02.083Z,89.8
2023-01-22T23:22:58.299Z,89.8
2023-01-22T23:24:57.588Z,90.2
2023-01-22T23:26:57.723Z,90.2
2023-01-22T23:28:59.724Z,90.2
2023-01-22T23:30:57.306Z,90.2
2023-01-22T23:32:56.909Z,89.9
2023-01-22T23:34:56.707Z,89.7
2023-01-22T23:36:56.579Z,89.7
2023-01-22T23:38:56.769Z,90.4
2023-01-22T23:40:57.291Z,90.1
2023-01-22T23:42:56.103Z,89.9
2023-01-22T23:44:56.096Z,89.9
2023-01-22T23:46:55.706Z,89.9
2023-01-22T23:48:57.377Z,89.9
2023-01-22T23:50:55.452Z,89.9
2023-01-22T23:52:55.432Z,90
2023-01-22T23:54:55.140Z,90
2023-01-22T23:56:55.054Z,90
2023-01-22T23:58:55.751Z,90
